Ilminster, United Kingdom
Current Conditions -  °F | °C
As of 7:50 AM on Sunday 26 Oct 2014 (Local Time) from EGDY Reporting Station
Overcast Overcast  
Wind Chill: 55°   Ceiling: 2900
Heat Index: 55°   Visibility: 6mi
Dew Point: 46°   Wind: 7mph
Humidity: 72%   Direction: 220°SW
Pressure: 30.12"   Gusts: NA
Location:  50.93°N, 2.91°W
Report Text: EGDY 260650Z AUTO 22006KT 9999 OVC029/// 13/08 Q1020
Loading
Personal Weather Stations






























Interactive Weather Map
Tropical Storm Tracking
New forecast layout! Learn more

10-Day Weather Forecast

Advertisements
Track Severe Weather on mobile